sensor_id;sensor_type;location;lat;lon;timestamp;temperature;humidity
36790;DHT22;22740;52.182;8.780;2024-02-15T00:03:45;11.10;99.90
36790;DHT22;22740;52.182;8.780;2024-02-15T00:09:51;11.20;99.90
36790;DHT22;22740;52.182;8.780;2024-02-15T00:15:53;11.20;99.90
36790;DHT22;22740;52.182;8.780;2024-02-15T00:21:55;11.20;99.90
36790;DHT22;22740;52.182;8.780;2024-02-15T00:27:58;11.20;99.90
36790;DHT22;22740;52.182;8.780;2024-02-15T00:34:01;11.10;99.90
36790;DHT22;22740;52.182;8.780;2024-02-15T00:40:08;11.10;99.90
36790;DHT22;22740;52.182;8.780;2024-02-15T00:46:10;11.10;99.90
36790;DHT22;22740;52.182;8.780;2024-02-15T00:52:12;11.00;99.90
36790;DHT22;22740;52.182;8.780;2024-02-15T00:58:15;11.10;99.90
36790;DHT22;22740;52.182;8.780;2024-02-15T01:04:16;11.10;99.90
36790;DHT22;22740;52.182;8.780;2024-02-15T01:10:18;11.10;99.90
36790;DHT22;22740;52.182;8.780;2024-02-15T01:16:20;11.10;99.90
36790;DHT22;22740;52.182;8.780;2024-02-15T01:22:23;11.10;99.90
36790;DHT22;22740;52.182;8.780;2024-02-15T01:28:28;11.10;99.90
36790;DHT22;22740;52.182;8.780;2024-02-15T01:34:30;11.10;99.90
36790;DHT22;22740;52.182;8.780;2024-02-15T01:40:33;11.10;99.90
36790;DHT22;22740;52.182;8.780;2024-02-15T01:46:35;11.10;99.90
36790;DHT22;22740;52.182;8.780;2024-02-15T01:52:37;11.10;99.90
36790;DHT22;22740;52.182;8.780;2024-02-15T01:58:40;11.10;99.90
36790;DHT22;22740;52.182;8.780;2024-02-15T02:04:42;11.00;99.90
36790;DHT22;22740;52.182;8.780;2024-02-15T02:10:44;11.10;99.90
36790;DHT22;22740;52.182;8.780;2024-02-15T02:16:47;11.10;99.90
36790;DHT22;22740;52.182;8.780;2024-02-15T02:22:50;11.10;99.90
36790;DHT22;22740;52.182;8.780;2024-02-15T02:28:56;11.10;99.90
36790;DHT22;22740;52.182;8.780;2024-02-15T02:34:58;11.10;99.90
36790;DHT22;22740;52.182;8.780;2024-02-15T02:41:00;11.20;99.90
36790;DHT22;22740;52.182;8.780;2024-02-15T02:47:01;11.10;99.90
36790;DHT22;22740;52.182;8.780;2024-02-15T02:53:03;11.10;99.90
36790;DHT22;22740;52.182;8.780;2024-02-15T02:59:07;11.20;99.90
36790;DHT22;22740;52.182;8.780;2024-02-15T03:05:09;11.20;99.90
36790;DHT22;22740;52.182;8.780;2024-02-15T03:11:13;11.10;99.90
36790;DHT22;22740;52.182;8.780;2024-02-15T03:17:16;11.10;99.90
36790;DHT22;22740;52.182;8.780;2024-02-15T03:23:17;11.10;99.90
36790;DHT22;22740;52.182;8.780;2024-02-15T03:29:19;11.10;99.90
36790;DHT22;22740;52.182;8.780;2024-02-15T03:35:23;11.10;99.90
36790;DHT22;22740;52.182;8.780;2024-02-15T03:41:27;11.10;99.90
36790;DHT22;22740;52.182;8.780;2024-02-15T03:47:35;11.10;99.90
36790;DHT22;22740;52.182;8.780;2024-02-15T03:53:37;11.10;99.90
36790;DHT22;22740;52.182;8.780;2024-02-15T03:59:39;11.00;99.90
36790;DHT22;22740;52.182;8.780;2024-02-15T04:05:42;11.10;99.90
36790;DHT22;22740;52.182;8.780;2024-02-15T04:11:44;11.20;99.90
36790;DHT22;22740;52.182;8.780;2024-02-15T04:17:51;11.10;99.90
36790;DHT22;22740;52.182;8.780;2024-02-15T04:23:58;11.20;99.90
36790;DHT22;22740;52.182;8.780;2024-02-15T04:30:02;11.20;99.90
36790;DHT22;22740;52.182;8.780;2024-02-15T04:36:05;11.20;99.90
36790;DHT22;22740;52.182;8.780;2024-02-15T04:42:08;11.20;99.90
36790;DHT22;22740;52.182;8.780;2024-02-15T04:48:13;11.20;99.90
36790;DHT22;22740;52.182;8.780;2024-02-15T04:54:15;11.20;99.90
36790;DHT22;22740;52.182;8.780;2024-02-15T05:00:20;11.20;99.90
36790;DHT22;22740;52.182;8.780;2024-02-15T05:06:23;11.20;99.90
36790;DHT22;22740;52.182;8.780;2024-02-15T05:12:25;11.20;99.90
36790;DHT22;22740;52.182;8.780;2024-02-15T05:18:27;11.20;99.90
36790;DHT22;22740;52.182;8.780;2024-02-15T05:24:32;11.20;99.90
36790;DHT22;22740;52.182;8.780;2024-02-15T05:30:34;11.20;99.90
36790;DHT22;22740;52.182;8.780;2024-02-15T05:36:36;11.20;99.90
36790;DHT22;22740;52.182;8.780;2024-02-15T05:42:38;11.20;99.90
36790;DHT22;22740;52.182;8.780;2024-02-15T05:48:40;11.20;99.90
36790;DHT22;22740;52.182;8.780;2024-02-15T05:54:42;11.20;99.90
36790;DHT22;22740;52.182;8.780;2024-02-15T06:00:44;11.20;99.90
36790;DHT22;22740;52.182;8.780;2024-02-15T06:06:46;11.20;99.90
36790;DHT22;22740;52.182;8.780;2024-02-15T06:12:52;11.20;99.90
36790;DHT22;22740;52.182;8.780;2024-02-15T06:18:54;11.10;99.90
36790;DHT22;22740;52.182;8.780;2024-02-15T06:24:57;11.10;99.90
36790;DHT22;22740;52.182;8.780;2024-02-15T06:30:58;11.00;99.90
36790;DHT22;22740;52.182;8.780;2024-02-15T06:37:36;11.00;99.90
36790;DHT22;22740;52.182;8.780;2024-02-15T06:43:57;11.00;99.90
36790;DHT22;22740;52.182;8.780;2024-02-15T06:49:59;11.00;99.90
36790;DHT22;22740;52.182;8.780;2024-02-15T06:56:00;11.00;99.90
36790;DHT22;22740;52.182;8.780;2024-02-15T07:02:04;11.00;99.90
36790;DHT22;22740;52.182;8.780;2024-02-15T07:08:10;11.00;99.90
36790;DHT22;22740;52.182;8.780;2024-02-15T07:14:12;10.90;99.90
36790;DHT22;22740;52.182;8.780;2024-02-15T07:20:15;10.90;99.90
36790;DHT22;22740;52.182;8.780;2024-02-15T07:26:18;10.90;99.90
36790;DHT22;22740;52.182;8.780;2024-02-15T07:32:22;11.00;99.90
36790;DHT22;22740;52.182;8.780;2024-02-15T07:38:23;11.00;99.90
36790;DHT22;22740;52.182;8.780;2024-02-15T07:44:27;11.00;99.90
36790;DHT22;22740;52.182;8.780;2024-02-15T07:50:31;11.10;99.90
36790;DHT22;22740;52.182;8.780;2024-02-15T07:56:33;11.10;99.90
36790;DHT22;22740;52.182;8.780;2024-02-15T08:02:40;11.20;99.90
36790;DHT22;22740;52.182;8.780;2024-02-15T08:08:46;11.20;99.90
36790;DHT22;22740;52.182;8.780;2024-02-15T08:14:48;11.30;99.90
36790;DHT22;22740;52.182;8.780;2024-02-15T08:20:50;11.30;99.90
36790;DHT22;22740;52.182;8.780;2024-02-15T08:26:51;11.40;99.90
36790;DHT22;22740;52.182;8.780;2024-02-15T08:32:58;11.50;99.90
36790;DHT22;22740;52.182;8.780;2024-02-15T08:39:00;11.50;99.90
36790;DHT22;22740;52.182;8.780;2024-02-15T08:45:03;11.60;99.90
36790;DHT22;22740;52.182;8.780;2024-02-15T08:51:05;11.60;99.90
36790;DHT22;22740;52.182;8.780;2024-02-15T08:57:11;11.60;99.90
36790;DHT22;22740;52.182;8.780;2024-02-15T09:03:13;11.70;99.90
36790;DHT22;22740;52.182;8.780;2024-02-15T09:09:15;11.70;99.90
36790;DHT22;22740;52.182;8.780;2024-02-15T09:15:17;11.80;99.90
36790;DHT22;22740;52.182;8.780;2024-02-15T09:21:20;11.80;99.90
36790;DHT22;22740;52.182;8.780;2024-02-15T09:27:23;11.80;99.90
36790;DHT22;22740;52.182;8.780;2024-02-15T09:33:25;11.80;99.90
36790;DHT22;22740;52.182;8.780;2024-02-15T09:39:28;11.80;99.90
36790;DHT22;22740;52.182;8.780;2024-02-15T09:45:30;11.80;99.90
36790;DHT22;22740;52.182;8.780;2024-02-15T09:51:33;11.80;99.90
36790;DHT22;22740;52.182;8.780;2024-02-15T09:57:35;11.80;99.90
36790;DHT22;22740;52.182;8.780;2024-02-15T10:03:41;11.80;99.90
36790;DHT22;22740;52.182;8.780;2024-02-15T10:09:43;11.80;99.90
36790;DHT22;22740;52.182;8.780;2024-02-15T10:15:45;11.80;99.90
36790;DHT22;22740;52.182;8.780;2024-02-15T10:21:51;11.70;99.90
36790;DHT22;22740;52.182;8.780;2024-02-15T10:28:06;11.80;99.90
36790;DHT22;22740;52.182;8.780;2024-02-15T10:34:14;11.80;99.90
36790;DHT22;22740;52.182;8.780;2024-02-15T10:40:20;11.90;99.90
36790;DHT22;22740;52.182;8.780;2024-02-15T10:46:22;11.80;99.90
36790;DHT22;22740;52.182;8.780;2024-02-15T10:52:31;11.70;99.90
36790;DHT22;22740;52.182;8.780;2024-02-15T10:58:42;11.60;99.90
36790;DHT22;22740;52.182;8.780;2024-02-15T11:04:52;11.60;99.90
36790;DHT22;22740;52.182;8.780;2024-02-15T11:10:56;11.50;99.90
36790;DHT22;22740;52.182;8.780;2024-02-15T11:17:01;11.50;99.90
36790;DHT22;22740;52.182;8.780;2024-02-15T11:23:11;11.50;99.90
36790;DHT22;22740;52.182;8.780;2024-02-15T11:29:48;11.50;99.90
36790;DHT22;22740;52.182;8.780;2024-02-15T11:36:08;11.60;99.90
36790;DHT22;22740;52.182;8.780;2024-02-15T11:42:30;11.60;99.90
36790;DHT22;22740;52.182;8.780;2024-02-15T11:48:36;11.60;99.90
36790;DHT22;22740;52.182;8.780;2024-02-15T11:54:41;11.60;99.90
36790;DHT22;22740;52.182;8.780;2024-02-15T12:00:43;11.60;99.90
36790;DHT22;22740;52.182;8.780;2024-02-15T12:07:03;11.50;99.90
36790;DHT22;22740;52.182;8.780;2024-02-15T12:13:23;11.60;99.90
36790;DHT22;22740;52.182;8.780;2024-02-15T12:19:44;11.70;99.90
36790;DHT22;22740;52.182;8.780;2024-02-15T12:25:52;11.70;99.90
36790;DHT22;22740;52.182;8.780;2024-02-15T12:31:53;12.00;99.90
36790;DHT22;22740;52.182;8.780;2024-02-15T12:44:00;12.20;99.90
36790;DHT22;22740;52.182;8.780;2024-02-15T12:50:16;12.20;99.90
36790;DHT22;22740;52.182;8.780;2024-02-15T12:56:21;12.20;99.90
36790;DHT22;22740;52.182;8.780;2024-02-15T13:02:25;12.30;99.90
36790;DHT22;22740;52.182;8.780;2024-02-15T13:08:27;12.30;99.90
36790;DHT22;22740;52.182;8.780;2024-02-15T13:14:29;12.50;99.90
36790;DHT22;22740;52.182;8.780;2024-02-15T13:20:31;12.70;99.90
36790;DHT22;22740;52.182;8.780;2024-02-15T13:26:38;12.70;99.90
36790;DHT22;22740;52.182;8.780;2024-02-15T13:32:42;12.70;99.90
36790;DHT22;22740;52.182;8.780;2024-02-15T13:38:44;12.70;99.90
36790;DHT22;22740;52.182;8.780;2024-02-15T13:44:46;12.80;99.90
36790;DHT22;22740;52.182;8.780;2024-02-15T13:50:53;12.80;99.90
36790;DHT22;22740;52.182;8.780;2024-02-15T13:56:55;12.90;99.90
36790;DHT22;22740;52.182;8.780;2024-02-15T14:02:59;12.90;99.90
36790;DHT22;22740;52.182;8.780;2024-02-15T14:09:01;12.90;99.90
36790;DHT22;22740;52.182;8.780;2024-02-15T14:15:03;12.90;99.90
36790;DHT22;22740;52.182;8.780;2024-02-15T14:21:07;12.90;99.90
36790;DHT22;22740;52.182;8.780;2024-02-15T14:27:12;12.90;99.90
36790;DHT22;22740;52.182;8.780;2024-02-15T14:33:16;13.00;99.90
36790;DHT22;22740;52.182;8.780;2024-02-15T14:39:23;13.10;99.90
36790;DHT22;22740;52.182;8.780;2024-02-15T14:45:25;13.10;99.90
36790;DHT22;22740;52.182;8.780;2024-02-15T14:51:28;13.00;99.90
36790;DHT22;22740;52.182;8.780;2024-02-15T14:57:31;13.00;99.90
36790;DHT22;22740;52.182;8.780;2024-02-15T15:03:39;13.00;99.90
36790;DHT22;22740;52.182;8.780;2024-02-15T15:09:41;13.10;99.90
36790;DHT22;22740;52.182;8.780;2024-02-15T15:16:02;13.20;99.90
36790;DHT22;22740;52.182;8.780;2024-02-15T15:22:04;13.10;99.90
36790;DHT22;22740;52.182;8.780;2024-02-15T15:28:06;13.10;99.90
36790;DHT22;22740;52.182;8.780;2024-02-15T15:34:08;13.00;99.90
36790;DHT22;22740;52.182;8.780;2024-02-15T15:40:12;13.00;99.90
36790;DHT22;22740;52.182;8.780;2024-02-15T15:46:14;13.00;99.90
36790;DHT22;22740;52.182;8.780;2024-02-15T15:52:17;13.00;99.90
36790;DHT22;22740;52.182;8.780;2024-02-15T15:58:18;13.00;99.90
36790;DHT22;22740;52.182;8.780;2024-02-15T16:04:24;12.90;99.90
36790;DHT22;22740;52.182;8.780;2024-02-15T16:10:26;12.90;99.90
36790;DHT22;22740;52.182;8.780;2024-02-15T16:16:30;12.90;99.90
36790;DHT22;22740;52.182;8.780;2024-02-15T16:22:32;12.90;99.90
36790;DHT22;22740;52.182;8.780;2024-02-15T16:28:34;12.90;99.90
36790;DHT22;22740;52.182;8.780;2024-02-15T16:34:35;12.90;99.90
36790;DHT22;22740;52.182;8.780;2024-02-15T16:40:37;12.80;99.90
36790;DHT22;22740;52.182;8.780;2024-02-15T16:46:39;12.60;99.90
36790;DHT22;22740;52.182;8.780;2024-02-15T16:52:41;12.50;99.90
36790;DHT22;22740;52.182;8.780;2024-02-15T16:58:45;12.50;99.90
36790;DHT22;22740;52.182;8.780;2024-02-15T17:04:48;12.40;99.90
36790;DHT22;22740;52.182;8.780;2024-02-15T17:10:50;12.30;99.90
36790;DHT22;22740;52.182;8.780;2024-02-15T17:16:51;12.30;99.90
36790;DHT22;22740;52.182;8.780;2024-02-15T17:22:55;12.20;99.90
36790;DHT22;22740;52.182;8.780;2024-02-15T17:28:59;12.20;99.90
36790;DHT22;22740;52.182;8.780;2024-02-15T17:35:05;12.20;99.90
36790;DHT22;22740;52.182;8.780;2024-02-15T17:41:11;12.20;99.90
36790;DHT22;22740;52.182;8.780;2024-02-15T17:47:13;12.10;99.90
36790;DHT22;22740;52.182;8.780;2024-02-15T17:53:15;12.10;99.90
36790;DHT22;22740;52.182;8.780;2024-02-15T17:59:17;12.20;99.90
36790;DHT22;22740;52.182;8.780;2024-02-15T18:05:19;12.20;99.90
36790;DHT22;22740;52.182;8.780;2024-02-15T18:11:22;12.20;99.90
36790;DHT22;22740;52.182;8.780;2024-02-15T18:17:24;12.10;99.90
36790;DHT22;22740;52.182;8.780;2024-02-15T18:23:26;12.10;99.90
36790;DHT22;22740;52.182;8.780;2024-02-15T18:29:28;12.00;99.90
36790;DHT22;22740;52.182;8.780;2024-02-15T18:35:30;11.90;99.90
36790;DHT22;22740;52.182;8.780;2024-02-15T18:41:31;11.90;99.90
36790;DHT22;22740;52.182;8.780;2024-02-15T18:47:33;11.90;99.90
36790;DHT22;22740;52.182;8.780;2024-02-15T18:53:38;12.00;99.90
36790;DHT22;22740;52.182;8.780;2024-02-15T18:59:40;11.90;99.90
36790;DHT22;22740;52.182;8.780;2024-02-15T19:05:42;12.00;99.90
36790;DHT22;22740;52.182;8.780;2024-02-15T19:11:46;12.00;99.90
36790;DHT22;22740;52.182;8.780;2024-02-15T19:17:51;12.10;99.90
36790;DHT22;22740;52.182;8.780;2024-02-15T19:23:53;12.10;99.90
36790;DHT22;22740;52.182;8.780;2024-02-15T19:29:57;12.10;99.90
36790;DHT22;22740;52.182;8.780;2024-02-15T19:35:59;12.00;99.90
36790;DHT22;22740;52.182;8.780;2024-02-15T19:42:01;12.00;99.90
36790;DHT22;22740;52.182;8.780;2024-02-15T19:48:04;12.00;99.90
36790;DHT22;22740;52.182;8.780;2024-02-15T19:54:07;12.00;99.90
36790;DHT22;22740;52.182;8.780;2024-02-15T20:00:09;11.90;99.90
36790;DHT22;22740;52.182;8.780;2024-02-15T20:06:16;11.90;99.90
36790;DHT22;22740;52.182;8.780;2024-02-15T20:12:18;11.90;99.90
36790;DHT22;22740;52.182;8.780;2024-02-15T20:18:20;11.80;99.90
36790;DHT22;22740;52.182;8.780;2024-02-15T20:24:22;11.80;99.90
36790;DHT22;22740;52.182;8.780;2024-02-15T20:30:24;11.80;99.90
36790;DHT22;22740;52.182;8.780;2024-02-15T20:36:26;11.80;99.90
36790;DHT22;22740;52.182;8.780;2024-02-15T20:42:28;11.70;99.90
36790;DHT22;22740;52.182;8.780;2024-02-15T20:48:30;11.80;99.90
36790;DHT22;22740;52.182;8.780;2024-02-15T20:54:32;11.70;99.90
36790;DHT22;22740;52.182;8.780;2024-02-15T21:00:35;11.80;99.90
36790;DHT22;22740;52.182;8.780;2024-02-15T21:06:37;11.80;99.90
36790;DHT22;22740;52.182;8.780;2024-02-15T21:12:40;11.80;99.90
36790;DHT22;22740;52.182;8.780;2024-02-15T21:18:45;11.70;99.90
36790;DHT22;22740;52.182;8.780;2024-02-15T21:24:48;11.80;99.90
36790;DHT22;22740;52.182;8.780;2024-02-15T21:30:50;11.80;99.90
36790;DHT22;22740;52.182;8.780;2024-02-15T21:36:52;11.80;99.90
36790;DHT22;22740;52.182;8.780;2024-02-15T21:42:54;11.90;99.90
36790;DHT22;22740;52.182;8.780;2024-02-15T21:48:55;12.00;99.90
36790;DHT22;22740;52.182;8.780;2024-02-15T21:54:57;12.10;99.90
36790;DHT22;22740;52.182;8.780;2024-02-15T22:00:59;12.00;99.90
36790;DHT22;22740;52.182;8.780;2024-02-15T22:07:02;12.00;99.90
36790;DHT22;22740;52.182;8.780;2024-02-15T22:13:04;11.90;99.90
36790;DHT22;22740;52.182;8.780;2024-02-15T22:19:06;11.80;99.90
36790;DHT22;22740;52.182;8.780;2024-02-15T22:25:10;11.80;99.90
36790;DHT22;22740;52.182;8.780;2024-02-15T22:31:16;11.80;99.90
36790;DHT22;22740;52.182;8.780;2024-02-15T22:37:18;11.70;99.90
36790;DHT22;22740;52.182;8.780;2024-02-15T22:43:20;11.70;99.90
36790;DHT22;22740;52.182;8.780;2024-02-15T22:49:23;11.70;99.90
36790;DHT22;22740;52.182;8.780;2024-02-15T22:55:25;11.70;99.90
36790;DHT22;22740;52.182;8.780;2024-02-15T23:01:27;11.70;99.90
36790;DHT22;22740;52.182;8.780;2024-02-15T23:07:30;11.70;99.90
36790;DHT22;22740;52.182;8.780;2024-02-15T23:13:32;11.80;99.90
36790;DHT22;22740;52.182;8.780;2024-02-15T23:19:34;11.80;99.90
36790;DHT22;22740;52.182;8.780;2024-02-15T23:25:36;11.80;99.90
36790;DHT22;22740;52.182;8.780;2024-02-15T23:31:38;11.80;99.90
36790;DHT22;22740;52.182;8.780;2024-02-15T23:37:41;11.80;99.90
36790;DHT22;22740;52.182;8.780;2024-02-15T23:44:01;11.70;99.90
36790;DHT22;22740;52.182;8.780;2024-02-15T23:50:04;11.70;99.90
36790;DHT22;22740;52.182;8.780;2024-02-15T23:56:06;11.60;99.90
